Ellison Bay, WI (54210)

3:27 PM CST on December 27, 2014 (GMT -0600)
MesoWest Sister Bay/Liberty Grove WI US MAWN | Change Station
CLOSE
Current Station
Personal Weather Station
Location: Ellison Bay, WI
Elevation: 691 ft
Nearby Weather Stations

Elev 691 ft 45.22 °N, 87.07 °W | Updated 3 hours ago

Overcast
Overcast
33 °F
Feels Like 27 °F
N
7
Wind Variable Wind from North
Gusts 0.0 mph

Today
High -- | Low -- °F
--% Chance of Precip.
Yesterday
High -- | Low -- °F
Precip. -- in
7:26 AM 4:12 PM
Waxing Crescent, 40% visible
Pressure 29.86 in
Visibility 10.0 miles
Clouds Few 1200 ft
Overcast 4300 ft
Windchill 27 °F
Dew Point 33 °F
Humidity 100%
Rainfall -999.00 in
Snow Depth Not available.
UV 0 out of 12
Pollen .10 out of 12
Air Quality Not available.
Flu Activity Not available.
METAR KMNM 272115Z AUTO 31005KT 10SM FEW012 OVC043 01/M01 A2986 RMK AO1

More Conditions Fewer Conditions

Pressure 29.86 in
Visibility 10.0 miles
Clouds Few 1200 ft
Overcast 4300 ft
Windchill 27 °F
Dew Point 33 °F
Humidity 100%
Rainfall -999.00 in
Snow Depth Not available.
UV 0 out of 12
Pollen .10 out of 12
Air Quality Not available.
Flu Activity Not available.
METAR KMNM 272115Z AUTO 31005KT 10SM FEW012 OVC043 01/M01 A2986 RMK AO1

More Conditions Fewer Conditions

10-Day Weather Forecast

Almanac

Astronomy

Dec. 27, 2014 Rise Set
Actual Time
Civil Twilight
Nautical Twilight
Astronomical Twilight
Moon
Length of Visible Light
Length of Day
Tomorrow will be .
, % of the Moon is Illuminated

Today's Extremes

State Highs State Lows

Community

WunderPhotos

Upload Photos

1,781,073 photos uploaded!

WunderBlogs® & News

Nearby

Air Quality

  Air Quality AQ Index Pollutant
Not available.

Snow Depth

Station Depth Elevation

Earthquake Activity

City Distance Mag. Time & Date
Minimum magnitude displayed is 2.5.

Coastal Water Temperatures

Place Temperature

Nearby Weather Stations